Time;durP1;ratioP1;P1;durP2;ratioP2;P2;SDS_P1;SDS_P2;PMS_P1;PMS_P2;Temp;Humidity;BMP_temperature;BMP_pressure;BME280_temperature;BME280_humidity;BME280_pressure;Samples;Min_cycle;Max_cycle;Signal;HPM_P1;HPM_P2
2021/03/14 00:01:05;;;;;;;61.55;30.17;;;;;;;2.30;85.68;99572.63;1718127;83;21157;-67
2021/03/14 00:03:36;;;;;;;71.37;36.85;;;;;;;2.28;85.88;99574.37;1718219;83;21227;-68
2021/03/14 00:06:04;;;;;;;66.25;35.10;;;;;;;2.26;85.93;99571.38;1718351;82;21634;-67
2021/03/14 00:08:31;;;;;;;62.17;34.05;;;;;;;2.22;86.04;99566.66;1718459;83;21207;-67
2021/03/14 00:11:07;;;;;;;63.28;33.00;;;;;;;2.22;86.04;99565.80;1718485;82;21635;-69
2021/03/14 00:13:38;;;;;;;62.55;32.13;;;;;;;2.19;86.10;99570.59;1718819;82;21374;-68
2021/03/14 00:16:08;;;;;;;59.27;29.30;;;;;;;2.17;86.26;99563.26;1719908;82;21183;-68
2021/03/14 00:18:41;;;;;;;60.50;30.62;;;;;;;2.04;86.41;99548.69;1720680;83;21180;-68
2021/03/14 00:21:10;;;;;;;59.50;31.12;;;;;;;2.14;86.44;99562.42;1720454;83;21614;-68
2021/03/14 00:23:37;;;;;;;62.73;33.75;;;;;;;2.12;86.52;99557.67;1720550;83;21204;-68
2021/03/14 00:26:08;;;;;;;58.52;28.73;;;;;;;2.09;86.56;99554.67;1720319;83;21207;-68
2021/03/14 00:28:35;;;;;;;73.57;36.60;;;;;;;2.06;86.74;99559.92;1720508;83;21199;-67
2021/03/14 00:31:03;;;;;;;90.85;42.45;;;;;;;2.05;86.91;99556.91;1720343;83;21140;-69
2021/03/14 00:33:31;;;;;;;82.67;43.85;;;;;;;2.04;86.89;99546.09;1733234;81;21186;-66
2021/03/14 00:36:00;;;;;;;81.55;39.33;;;;;;;2.03;86.86;99550.87;1756636;81;21655;-66
2021/03/14 00:38:27;;;;;;;69.62;33.30;;;;;;;2.02;86.89;99554.33;1757151;81;21206;-67
2021/03/14 00:40:55;;;;;;;67.82;33.65;;;;;;;1.99;86.85;99553.08;1757073;81;21633;-66
2021/03/14 00:43:23;;;;;;;69.75;35.08;;;;;;;1.97;86.99;99558.73;1757206;81;21157;-67
2021/03/14 00:45:51;;;;;;;64.92;33.73;;;;;;;1.94;87.26;99552.28;1757244;81;21189;-66
2021/03/14 00:48:21;;;;;;;72.85;38.23;;;;;;;1.93;87.20;99558.33;1755845;81;21652;-68
2021/03/14 00:50:49;;;;;;;69.03;35.10;;;;;;;1.92;87.22;99563.12;1757380;81;21601;-65
2021/03/14 00:53:19;;;;;;;67.95;35.13;;;;;;;1.91;87.26;99560.08;1757021;81;21272;-67
2021/03/14 00:55:49;;;;;;;46.70;26.27;;;;;;;1.89;87.33;99560.97;1757475;81;21180;-67
2021/03/14 00:58:18;;;;;;;67.12;35.10;;;;;;;1.89;87.29;99566.17;1757280;81;21212;-66
2021/03/14 01:00:45;;;;;;;63.90;32.85;;;;;;;1.86;87.39;99559.72;1757098;81;21200;-67
2021/03/14 01:03:13;;;;;;;59.03;29.98;;;;;;;1.86;87.31;99549.75;1757089;81;21411;-66
2021/03/14 01:05:43;;;;;;;52.78;27.65;;;;;;;1.85;87.48;99556.68;1757033;81;22056;-66
2021/03/14 01:08:12;;;;;;;49.88;27.40;;;;;;;1.81;87.38;99552.39;1757221;81;21225;-65
2021/03/14 01:10:40;;;;;;;45.30;24.20;;;;;;;1.78;87.61;99548.54;1729947;81;21389;-65
2021/03/14 01:13:11;;;;;;;46.70;24.55;;;;;;;1.70;87.70;99538.66;1757415;81;26882;-68
2021/03/14 01:15:39;;;;;;;42.17;23.00;;;;;;;1.71;87.90;99545.59;1739884;76;21279;-69
2021/03/14 01:18:07;;;;;;;38.25;20.75;;;;;;;1.71;87.84;99542.14;1722822;83;21177;-69
2021/03/14 01:20:35;;;;;;;35.78;20.32;;;;;;;1.68;87.93;99541.73;1748853;82;21150;-69
2021/03/14 01:23:56;;;;;;;35.10;20.03;;;;;;;1.71;87.98;99537.80;1775276;79;23430;-71
2021/03/14 01:26:26;;;;;;;36.53;18.82;;;;;;;1.64;88.03;99543.94;1748001;82;21583;-71
2021/03/14 01:28:53;;;;;;;38.23;19.77;;;;;;;1.59;88.36;99549.17;1747952;82;21367;-71
2021/03/14 01:31:21;;;;;;;40.55;21.82;;;;;;;1.59;88.47;99549.62;1699193;79;21195;-66
2021/03/14 01:33:49;;;;;;;38.55;22.07;;;;;;;1.57;88.57;99552.66;1679234;84;21179;-67
2021/03/14 01:36:17;;;;;;;37.98;21.85;;;;;;;1.57;88.55;99550.07;1678958;85;21207;-64
2021/03/14 01:38:44;;;;;;;36.80;20.70;;;;;;;1.57;88.65;99551.37;1679415;85;21199;-65
2021/03/14 01:41:13;;;;;;;40.58;22.15;;;;;;;1.54;88.46;99547.07;1679342;85;21370;-64
2021/03/14 01:43:41;;;;;;;47.67;25.40;;;;;;;1.51;88.51;99544.48;1644053;87;21216;-65
2021/03/14 01:46:10;;;;;;;41.53;23.42;;;;;;;1.51;88.62;99542.33;1689142;79;21167;-71
2021/03/14 01:48:39;;;;;;;45.95;24.32;;;;;;;1.47;88.70;99541.48;1710167;83;21206;-70
2021/03/14 01:51:07;;;;;;;47.62;25.75;;;;;;;1.46;88.81;99542.38;1720694;83;21194;-71
2021/03/14 01:53:35;;;;;;;45.23;24.63;;;;;;;1.44;88.86;99537.19;1720706;83;21186;-71
2021/03/14 01:56:04;;;;;;;46.45;24.77;;;;;;;1.43;89.00;99527.70;1720573;83;21199;-70
2021/03/14 01:58:34;;;;;;;43.52;23.85;;;;;;;1.42;89.05;99531.15;1720795;83;21207;-70
2021/03/14 02:01:02;;;;;;;53.63;27.23;;;;;;;1.41;89.33;99544.16;1720841;83;21214;-70
2021/03/14 02:03:30;;;;;;;44.90;25.20;;;;;;;1.41;89.27;99542.86;1721745;83;21743;-69
2021/03/14 02:05:58;;;;;;;40.92;22.67;;;;;;;1.41;89.13;99543.72;1722970;83;21226;-70
2021/03/14 02:08:25;;;;;;;44.05;24.63;;;;;;;1.40;89.44;99538.53;1687328;85;21202;-69
2021/03/14 02:10:53;;;;;;;43.30;22.95;;;;;;;1.39;89.51;99544.16;1723100;83;21264;-70
2021/03/14 02:13:40;;;;;;;40.90;23.05;;;;;;;1.39;89.51;99541.57;1723069;83;21201;-70
2021/03/14 02:16:15;;;;;;;37.93;18.17;;;;;;;1.38;89.66;99539.86;1687132;85;21733;-72
2021/03/14 02:18:47;;;;;;;37.90;20.60;;;;;;;1.36;89.66;99541.61;1702653;83;21225;-72
2021/03/14 02:21:15;;;;;;;40.43;21.07;;;;;;;1.34;89.48;99543.35;1693928;84;21242;-72
2021/03/14 02:23:57;;;;;;;35.95;21.00;;;;;;;1.30;89.64;99549.44;1659281;86;21196;-72
2021/03/14 02:26:37;;;;;;;33.75;18.98;;;;;;;1.28;89.79;99556.37;1693914;84;21189;-73
2021/03/14 02:29:05;;;;;;;34.60;19.90;;;;;;;1.25;89.79;99559.00;1693916;84;21260;-74
2021/03/14 02:31:33;;;;;;;33.55;18.85;;;;;;;1.21;90.10;99558.59;1648426;84;21313;-73
2021/03/14 02:34:10;;;;;;;35.73;18.98;;;;;;;1.18;90.13;99559.92;1693692;84;21190;-75
2021/03/14 02:36:41;;;;;;;32.05;18.25;;;;;;;1.16;90.17;99559.07;1693423;84;21589;-74
2021/03/14 02:39:14;;;;;;;31.02;18.90;;;;;;;1.13;90.34;99555.19;1658727;86;21187;-73
2021/03/14 02:41:43;;;;;;;35.90;19.85;;;;;;;1.11;90.52;99563.44;1693587;84;21221;-71
2021/03/14 02:44:13;;;;;;;36.05;18.90;;;;;;;1.07;90.59;99566.48;1693509;83;21189;-70
2021/03/14 02:46:42;;;;;;;38.73;20.48;;;;;;;1.03;90.74;99559.14;1670788;85;21191;-71
2021/03/14 02:49:11;;;;;;;39.00;20.12;;;;;;;1.02;90.83;99555.29;1677727;84;21183;-71
2021/03/14 02:51:39;;;;;;;34.83;19.35;;;;;;;0.98;91.12;99550.55;1677584;84;21195;-71
2021/03/14 02:54:07;;;;;;;36.00;20.23;;;;;;;0.96;91.56;99557.47;1677550;85;21183;-72
2021/03/14 02:56:36;;;;;;;38.88;20.82;;;;;;;0.96;91.71;99557.47;1677731;85;21384;-72
2021/03/14 02:59:03;;;;;;;40.28;21.37;;;;;;;0.95;91.80;99553.17;1656239;85;21186;-71
2021/03/14 03:01:31;;;;;;;38.70;21.20;;;;;;;0.96;92.10;99554.03;1677713;85;21833;-71
2021/03/14 03:04:00;;;;;;;38.20;22.02;;;;;;;0.96;92.08;99563.10;1677525;84;21211;-71
2021/03/14 03:06:28;;;;;;;40.92;22.10;;;;;;;0.96;92.47;99556.63;1677470;85;21250;-71
2021/03/14 03:08:56;;;;;;;40.85;21.77;;;;;;;0.97;92.32;99561.80;1677562;85;21250;-71
2021/03/14 03:11:24;;;;;;;40.05;21.27;;;;;;;1.00;92.50;99556.58;1677573;85;21180;-72
2021/03/14 03:13:53;;;;;;;40.48;22.87;;;;;;;1.01;92.50;99556.14;1677776;83;21619;-71
2021/03/14 03:16:21;;;;;;;43.58;22.17;;;;;;;1.01;92.51;99560.92;1677556;85;21666;-71
2021/03/14 03:18:50;;;;;;;44.23;25.82;;;;;;;1.02;92.60;99560.03;1658476;85;21174;-70
2021/03/14 03:21:20;;;;;;;49.48;27.02;;;;;;;1.02;92.63;99566.52;1648704;85;21935;-70
2021/03/14 03:23:48;;;;;;;51.77;28.83;;;;;;;1.04;92.69;99559.59;1646888;87;21216;-71
2021/03/14 03:26:16;;;;;;;50.58;25.92;;;;;;;1.03;92.72;99566.92;1646543;87;21164;-71
2021/03/14 03:28:43;;;;;;;56.20;28.95;;;;;;;1.03;92.82;99562.18;1646889;85;21635;-71
2021/03/14 03:31:11;;;;;;;50.33;23.27;;;;;;;1.05;92.89;99566.92;1646629;87;21196;-71
2021/03/14 03:33:39;;;;;;;51.92;21.60;;;;;;;1.02;93.01;99575.59;1646774;86;21393;-71
2021/03/14 03:36:07;;;;;;;59.30;28.98;;;;;;;1.03;93.15;99577.30;1646394;87;21224;-70
2021/03/14 03:38:35;;;;;;;62.17;27.60;;;;;;;1.02;93.31;99570.41;1646574;87;21505;-70
2021/03/14 03:41:02;;;;;;;62.75;28.10;;;;;;;1.03;93.36;99577.30;1646584;85;21172;-71
2021/03/14 03:43:37;;;;;;;73.55;32.65;;;;;;;1.02;93.50;99566.52;1646736;87;21164;-72
2021/03/14 03:46:09;;;;;;;50.65;24.25;;;;;;;1.05;93.50;99553.52;1648817;85;22216;-73
2021/03/14 03:48:49;;;;;;;70.75;33.65;;;;;;;1.04;93.52;99553.11;1656835;86;21227;-71
2021/03/14 03:51:20;;;;;;;64.37;31.93;;;;;;;1.06;93.51;99558.29;1626188;87;21195;-71
2021/03/14 03:53:48;;;;;;;54.35;28.02;;;;;;;1.07;93.47;99558.70;1629264;86;21227;-72
2021/03/14 03:56:16;;;;;;;44.75;19.57;;;;;;;1.07;93.50;99556.55;1629339;88;21299;-72
2021/03/14 03:58:44;;;;;;;75.67;36.48;;;;;;;1.05;93.51;99565.19;1629185;88;21382;-73
2021/03/14 04:01:12;;;;;;;74.97;33.70;;;;;;;1.07;93.51;99560.00;1628991;88;21756;-72
2021/03/14 04:03:44;;;;;;;66.85;32.35;;;;;;;1.07;93.47;99551.36;1629138;87;21169;-72
2021/03/14 04:06:14;;;;;;;63.28;30.62;;;;;;;1.07;93.48;99550.06;1628974;88;21224;-72
2021/03/14 04:08:43;;;;;;;66.40;35.65;;;;;;;1.05;93.49;99540.55;1628927;88;21196;-72
2021/03/14 04:11:14;;;;;;;46.53;21.23;;;;;;;1.07;93.41;99535.80;1629097;87;21397;-71
2021/03/14 04:13:43;;;;;;;66.60;32.55;;;;;;;1.08;93.30;99534.92;1629195;88;21212;-71
2021/03/14 04:16:11;;;;;;;58.65;29.32;;;;;;;1.05;93.34;99539.25;1629342;88;21219;-71
2021/03/14 04:18:40;;;;;;;63.78;31.42;;;;;;;1.05;93.28;99535.80;1626053;88;21256;-73
2021/03/14 04:21:13;;;;;;;53.78;25.97;;;;;;;0.94;93.31;99520.32;1624523;88;21212;-71
2021/03/14 04:23:44;;;;;;;64.37;32.60;;;;;;;1.04;93.34;99531.51;1624620;88;21725;-71
2021/03/14 04:26:12;;;;;;;;;;;;;;;1.04;93.35;99534.10;1626693;88;21208;-72
2021/03/14 04:28:39;;;;;;;61.73;25.80;;;;;;;1.02;93.38;99531.51;1624447;88;20242;-71
2021/03/14 04:31:07;;;;;;;50.92;24.18;;;;;;;1.01;93.41;99539.29;1624569;88;21191;-71
2021/03/14 04:33:35;;;;;;;63.00;30.75;;;;;;;1.01;93.41;99537.58;1624493;88;21215;-70
2021/03/14 04:36:04;;;;;;;59.33;29.82;;;;;;;1.04;93.36;99530.21;1624482;88;21604;-71
2021/03/14 04:38:32;;;;;;;56.28;23.25;;;;;;;1.07;93.21;99521.55;1624566;88;21212;-71
2021/03/14 04:40:59;;;;;;;64.92;31.25;;;;;;;1.05;93.18;99514.62;1600600;88;21212;-72
2021/03/14 04:43:27;;;;;;;59.53;29.05;;;;;;;1.07;93.13;99517.66;1624548;88;21703;-72
2021/03/14 04:45:55;;;;;;;58.83;26.75;;;;;;;1.08;93.09;99516.77;1600791;88;21168;-72
2021/03/14 04:48:23;;;;;;;57.38;28.10;;;;;;;1.09;93.04;99508.13;1652464;85;21394;-71
2021/03/14 04:50:53;;;;;;;45.92;24.55;;;;;;;1.08;93.07;99510.28;1673559;85;21717;-72
2021/03/14 04:53:22;;;;;;;59.58;28.98;;;;;;;1.09;93.01;99521.09;1673667;85;21187;-72
2021/03/14 04:55:49;;;;;;;50.78;26.23;;;;;;;1.09;93.01;99527.58;1673723;84;21709;-71
2021/03/14 04:58:21;;;;;;;53.87;28.73;;;;;;;1.11;92.93;99532.32;1652025;85;21207;-71
2021/03/14 05:00:48;;;;;;;52.95;26.15;;;;;;;1.11;92.86;99534.91;1673643;85;21462;-71
2021/03/14 05:03:23;;;;;;;48.25;27.37;;;;;;;1.14;92.77;99534.88;1673403;85;21235;-75
2021/03/14 05:05:52;;;;;;;49.90;25.43;;;;;;;1.14;92.70;99532.28;1673513;85;21204;-71
2021/03/14 05:08:22;;;;;;;50.67;27.98;;;;;;;1.17;92.62;99533.55;1673814;85;21686;-70
2021/03/14 05:10:51;;;;;;;53.58;25.52;;;;;;;1.17;92.61;99538.29;1674000;85;21220;-70
2021/03/14 05:13:20;;;;;;;47.93;21.68;;;;;;;1.18;92.55;99533.98;1673854;85;21192;-70
2021/03/14 05:15:54;;;;;;;49.58;26.15;;;;;;;1.16;92.44;99538.32;1673834;85;21219;-71
2021/03/14 05:18:23;;;;;;;49.98;25.85;;;;;;;1.13;92.48;99534.44;1673800;85;21143;-71
2021/03/14 05:20:52;;;;;;;51.58;26.82;;;;;;;1.11;92.56;99532.32;1673611;85;21208;-71
2021/03/14 05:23:19;;;;;;;49.88;25.95;;;;;;;1.13;92.63;99535.73;1673644;84;21690;-71
2021/03/14 05:25:47;;;;;;;49.73;27.30;;;;;;;1.14;92.60;99540.92;1652286;85;21373;-71
2021/03/14 05:28:14;;;;;;;51.28;24.57;;;;;;;1.17;92.66;99538.73;1673543;85;21707;-71
2021/03/14 05:30:42;;;;;;;39.13;19.70;;;;;;;1.17;92.53;99543.92;1673713;85;21175;-71
2021/03/14 05:33:11;;;;;;;39.20;18.67;;;;;;;1.14;92.54;99550.00;1652420;85;21211;-72
2021/03/14 05:35:39;;;;;;;46.10;24.67;;;;;;;1.10;92.59;99550.03;1663648;85;21197;-73
2021/03/14 05:38:07;;;;;;;34.40;17.52;;;;;;;1.11;92.68;99550.48;1671288;85;21828;-73
2021/03/14 05:40:35;;;;;;;40.28;18.48;;;;;;;1.11;92.63;99559.11;1673646;85;21207;-72
2021/03/14 05:43:03;;;;;;;41.65;23.57;;;;;;;1.10;92.59;99553.92;1673602;85;21831;-73
2021/03/14 05:45:31;;;;;;;45.05;23.60;;;;;;;1.10;92.68;99553.92;1673683;85;21241;-73
2021/03/14 05:47:59;;;;;;;36.68;19.45;;;;;;;1.13;92.60;99556.48;1662738;85;21211;-73
2021/03/14 05:50:28;;;;;;;41.65;22.15;;;;;;;1.13;92.53;99556.48;1658345;86;21718;-72
2021/03/14 05:52:56;;;;;;;45.50;24.98;;;;;;;1.16;92.45;99551.29;1658183;85;22144;-72
2021/03/14 05:55:25;;;;;;;36.20;19.25;;;;;;;1.17;92.48;99555.59;1658251;86;21172;-72
2021/03/14 05:57:56;;;;;;;40.38;21.48;;;;;;;1.17;92.38;99555.59;1658160;86;21232;-73
2021/03/14 06:00:27;;;;;;;47.62;24.23;;;;;;;1.17;92.41;99558.19;1658533;86;21974;-73
2021/03/14 06:02:58;;;;;;;36.48;20.02;;;;;;;1.21;92.46;99558.15;1658013;85;21703;-73
2021/03/14 06:05:30;;;;;;;38.05;21.12;;;;;;;1.24;92.39;99569.81;1632522;85;21196;-73
2021/03/14 06:07:58;;;;;;;36.28;19.65;;;;;;;1.27;92.08;99562.44;1682352;79;21192;-62
2021/03/14 06:10:28;;;;;;;37.93;18.87;;;;;;;1.29;92.08;99565.89;1676482;84;21251;-63
2021/03/14 06:12:55;;;;;;;38.33;19.48;;;;;;;1.30;91.94;99567.59;1672551;85;21239;-65
2021/03/14 06:15:23;;;;;;;36.90;19.17;;;;;;;1.28;92.01;99556.37;1646675;87;22270;-64
2021/03/14 06:17:51;;;;;;;38.35;20.85;;;;;;;1.32;91.82;99568.45;1653069;85;21259;-63
2021/03/14 06:20:37;;;;;;;36.48;20.05;;;;;;;1.35;91.74;99554.14;1672391;85;21204;-62
2021/03/14 06:23:14;;;;;;;34.13;19.65;;;;;;;1.43;91.81;99557.98;1674500;80;21231;-72
2021/03/14 06:25:44;;;;;;;33.73;16.95;;;;;;;1.52;91.60;99553.13;1692498;84;21180;-73
2021/03/14 06:28:12;;;;;;;26.10;12.82;;;;;;;1.57;90.89;99542.28;1713806;83;21408;-72
2021/03/14 06:30:40;;;;;;;25.72;14.10;;;;;;;1.56;90.56;99546.59;1697105;83;21201;-72
2021/03/14 06:33:16;;;;;;;25.35;13.93;;;;;;;1.56;90.47;99549.19;1721180;83;21194;-73
2021/03/14 06:35:54;;;;;;;31.20;17.42;;;;;;;1.59;90.35;99530.16;1721552;83;21154;-74
2021/03/14 06:38:30;;;;;;;33.55;18.32;;;;;;;1.61;90.10;99538.34;1721503;83;21137;-74
2021/03/14 06:41:12;;;;;;;25.88;14.10;;;;;;;1.67;90.15;99544.75;1721357;83;21134;-73
2021/03/14 06:43:52;;;;;;;28.47;16.55;;;;;;;1.75;89.54;99547.29;1721254;83;21199;-74
2021/03/14 06:46:29;;;;;;;30.97;18.52;;;;;;;1.86;89.44;99538.06;1721395;83;21151;-73
2021/03/14 06:49:11;;;;;;;27.25;14.83;;;;;;;1.96;89.08;99531.05;1714246;83;21185;-74
2021/03/14 06:51:50;;;;;;;29.60;17.32;;;;;;;2.04;88.16;99526.16;1717958;83;21171;-72
2021/03/14 06:54:39;;;;;;;29.75;18.02;;;;;;;2.17;87.92;99528.19;1714138;83;21238;-73
2021/03/14 06:57:17;;;;;;;30.50;16.55;;;;;;;2.35;87.24;99528.39;1715276;83;21162;-71
2021/03/14 06:59:49;;;;;;;28.60;17.15;;;;;;;2.55;86.30;99533.30;1716710;83;21184;-73
2021/03/14 07:02:26;;;;;;;16.77;9.85;;;;;;;2.72;85.26;99540.88;1716147;83;21178;-73
2021/03/14 07:05:00;;;;;;;25.92;14.63;;;;;;;2.83;84.62;99540.70;1715677;83;21206;-72
2021/03/14 07:07:41;;;;;;;21.48;10.55;;;;;;;2.99;84.34;99550.02;1712266;83;22690;-71
2021/03/14 07:10:12;;;;;;;33.20;11.88;;;;;;;3.10;82.95;99540.27;1709434;83;21210;-71
2021/03/14 07:12:45;;;;;;;20.62;11.73;;;;;;;3.18;82.34;99547.12;1720856;83;21638;-72
2021/03/14 07:15:40;;;;;;;24.72;14.53;;;;;;;3.18;81.76;99554.48;1711420;83;21194;-72
2021/03/14 07:18:08;;;;;;;22.32;11.30;;;;;;;3.18;81.76;99554.48;1666006;85;21143;-73
2021/03/14 07:20:36;;;;;;;23.80;13.95;;;;;;;3.44;81.22;99552.73;1612722;85;21408;-73
2021/03/14 07:23:19;;;;;;;19.07;10.43;;;;;;;3.44;81.22;99552.73;1651300;85;21305;-71
2021/03/14 07:25:47;;;;;;;23.57;14.20;;;;;;;3.42;80.35;99552.34;1738345;80;21657;-68
2021/03/14 07:28:16;;;;;;;17.62;9.70;;;;;;;3.43;80.41;99564.05;1751706;81;21170;-69
2021/03/14 07:30:43;;;;;;;20.00;11.45;;;;;;;3.56;80.04;99568.13;1752741;81;21195;-68
2021/03/14 07:33:11;;;;;;;17.27;9.50;;;;;;;3.64;79.77;99569.77;1751982;81;21255;-68
2021/03/14 07:35:39;;;;;;;17.45;9.50;;;;;;;3.51;79.66;99567.36;1752175;81;21170;-67
2021/03/14 07:38:06;;;;;;;19.00;8.28;;;;;;;3.36;80.07;99571.55;1751995;81;21210;-68
2021/03/14 07:40:34;;;;;;;19.77;12.47;;;;;;;3.26;80.50;99568.66;1736265;80;21200;-72
2021/03/14 07:43:02;;;;;;;14.00;8.73;;;;;;;3.22;80.80;99566.98;1738205;81;21160;-72
2021/03/14 07:45:31;;;;;;;20.45;12.58;;;;;;;3.33;81.04;99568.52;1742678;81;21786;-72
2021/03/14 07:48:00;;;;;;;19.60;11.20;;;;;;;3.33;81.04;99568.52;1746102;81;21212;-73
2021/03/14 07:50:34;;;;;;;19.52;11.73;;;;;;;3.45;80.61;99559.67;1736722;81;21619;-72
2021/03/14 07:53:09;;;;;;;14.83;8.63;;;;;;;3.62;79.88;99558.52;1744160;81;21211;-71
2021/03/14 07:55:37;;;;;;;15.13;8.35;;;;;;;3.60;79.38;99565.49;1713226;80;21182;-68
2021/03/14 07:58:04;;;;;;;16.87;9.53;;;;;;;3.69;78.89;99556.22;1706135;83;21260;-68
2021/03/14 08:00:34;;;;;;;14.78;9.40;;;;;;;3.79;78.86;99567.72;1705930;82;21224;-69
2021/03/14 08:03:08;;;;;;;17.17;8.67;;;;;;;4.04;78.11;99567.72;1705283;83;21815;-68
2021/03/14 08:05:45;;;;;;;12.88;8.55;;;;;;;4.22;76.81;99561.29;1708757;83;21471;-67
2021/03/14 08:08:29;;;;;;;12.73;7.03;;;;;;;4.35;76.40;99566.67;1712889;83;21321;-68
2021/03/14 08:10:58;;;;;;;13.65;7.62;;;;;;;4.45;75.49;99567.33;1605034;88;21229;-72
2021/03/14 08:13:35;;;;;;;16.40;10.32;;;;;;;4.59;75.00;99562.67;1611812;88;21653;-72
2021/03/14 08:16:10;;;;;;;17.07;10.70;;;;;;;4.69;74.66;99560.27;1606803;89;21260;-72
2021/03/14 08:18:48;;;;;;;15.15;10.00;;;;;;;4.81;74.30;99548.27;1593780;89;21760;-73
2021/03/14 08:21:31;;;;;;;14.95;9.23;;;;;;;4.93;73.72;99551.49;1615461;86;21146;-73
2021/03/14 08:24:02;;;;;;;15.10;10.35;;;;;;;4.92;73.53;99547.15;1663913;83;22132;-68
2021/03/14 08:26:37;;;;;;;16.52;10.00;;;;;;;5.11;74.45;99543.23;1701344;82;21198;-68
2021/03/14 08:29:13;;;;;;;19.27;10.98;;;;;;;5.21;73.45;99555.15;1702106;84;21219;-68
2021/03/14 08:31:51;;;;;;;14.47;9.10;;;;;;;5.37;72.33;99546.95;1701886;84;21139;-67
2021/03/14 08:34:35;;;;;;;14.07;9.40;;;;;;;5.83;70.37;99537.91;1703160;83;21666;-67
2021/03/14 08:37:21;;;;;;;13.70;9.20;;;;;;;6.17;69.45;99539.64;1705540;83;21211;-67
2021/03/14 08:39:49;;;;;;;12.70;7.62;;;;;;;6.28;67.69;99529.70;1671425;81;21214;-73
2021/03/14 08:42:21;;;;;;;12.80;8.35;;;;;;;6.33;67.59;99538.29;1606452;87;21682;-72
2021/03/14 08:44:50;;;;;;;15.00;9.30;;;;;;;6.59;66.28;99531.42;1630918;87;21224;-73
2021/03/14 08:47:23;;;;;;;14.28;9.73;;;;;;;6.91;66.58;99531.28;1629408;87;21208;-72
2021/03/14 08:49:54;;;;;;;10.88;7.75;;;;;;;7.52;64.21;99527.54;1622380;87;21903;-72
2021/03/14 08:52:27;;;;;;;11.93;8.20;;;;;;;7.71;62.66;99540.89;1635457;86;21223;-73
2021/03/14 08:55:04;;;;;;;13.13;8.75;;;;;;;7.52;62.64;99532.78;1673028;81;21493;-68
2021/03/14 08:57:34;;;;;;;;;;;;;;;7.59;62.58;99536.05;1699281;84;21210;-68
2021/03/14 09:00:06;;;;;;;10.95;7.45;;;;;;;7.20;62.97;99539.09;1693179;84;20290;-68
2021/03/14 09:02:36;;;;;;;15.38;10.20;;;;;;;7.01;64.27;99548.00;1696060;84;21387;-69
2021/03/14 09:05:19;;;;;;;15.98;8.35;;;;;;;7.01;65.16;99549.31;1852754;75;29422;-67
2021/03/14 09:08:00;;;;;;;14.78;10.08;;;;;;;6.99;64.44;99565.52;1787075;79;21203;-68
2021/03/14 09:11:00;;;;;;;12.78;9.23;;;;;;;6.81;65.68;99550.80;1794217;75;28299;-70
2021/03/14 09:13:28;;;;;;;12.85;8.75;;;;;;;6.60;66.72;99556.67;1796156;78;21255;-74
2021/03/14 09:15:59;;;;;;;15.23;9.73;;;;;;;6.44;66.55;99564.98;1766110;78;21383;-72
2021/03/14 09:18:49;;;;;;;12.95;8.08;;;;;;;6.28;67.61;99556.73;1795172;78;21200;-71
2021/03/14 09:21:18;;;;;;;12.18;7.85;;;;;;;6.19;67.47;99560.03;1748623;80;21216;-71
2021/03/14 09:23:53;;;;;;;12.25;7.78;;;;;;;6.12;67.75;99559.80;1789226;77;21172;-72
2021/03/14 09:26:29;;;;;;;15.00;8.83;;;;;;;5.99;68.10;99561.91;1779233;80;21713;-68
2021/03/14 09:28:59;;;;;;;13.30;8.78;;;;;;;5.98;68.98;99553.22;1748266;80;21987;-68
2021/03/14 09:31:27;;;;;;;16.35;9.85;;;;;;;6.09;68.63;99548.52;1752145;80;21181;-69
2021/03/14 09:33:57;;;;;;;14.58;9.18;;;;;;;6.09;68.40;99545.91;1748231;80;21182;-70
2021/03/14 09:36:27;;;;;;;14.00;8.10;;;;;;;6.34;69.07;99547.83;1753058;80;22354;-69
2021/03/14 09:38:59;;;;;;;17.95;10.55;;;;;;;6.36;67.08;99542.11;1780046;78;21637;-72
2021/03/14 09:41:42;;;;;;;12.37;7.20;;;;;;;6.24;67.23;99547.70;1673403;84;21408;-73
2021/03/14 09:44:15;;;;;;;15.93;10.90;;;;;;;6.15;67.65;99547.51;1671752;84;21264;-73
2021/03/14 09:46:57;;;;;;;16.15;10.63;;;;;;;6.16;68.33;99525.68;1804683;77;28643;-72
2021/03/14 09:49:40;;;;;;;15.40;10.75;;;;;;;6.11;68.57;99528.03;1797462;79;21630;-74
2021/03/14 09:52:10;;;;;;;14.03;10.25;;;;;;;6.19;67.74;99520.81;1729744;81;21325;-74
2021/03/14 09:54:38;;;;;;;15.95;10.38;;;;;;;6.38;67.26;99516.77;1730259;80;21171;-68
2021/03/14 09:57:06;;;;;;;12.70;7.25;;;;;;;6.71;66.52;99520.57;1729531;82;21201;-68
2021/03/14 09:59:36;;;;;;;13.58;9.23;;;;;;;6.86;65.14;99510.94;1699973;84;21205;-69
2021/03/14 10:02:27;;;;;;;15.35;10.18;;;;;;;7.40;64.29;99496.53;1883874;75;28210;-67
2021/03/14 10:05:05;;;;;;;17.12;10.70;;;;;;;7.74;63.06;99493.59;1821672;78;21633;-69
2021/03/14 10:07:34;;;;;;;16.40;11.05;;;;;;;8.20;62.14;99503.26;1820163;78;21780;-68
2021/03/14 10:10:07;;;;;;;11.22;7.33;;;;;;;8.28;60.21;99498.17;1778145;77;21184;-74
2021/03/14 10:12:50;;;;;;;13.20;8.68;;;;;;;8.19;60.28;99497.63;1789140;78;28590;-74
2021/03/14 10:15:21;;;;;;;13.50;8.43;;;;;;;8.22;60.04;99501.05;1755268;80;21221;-73
2021/03/14 10:17:50;;;;;;;20.52;8.95;;;;;;;8.46;60.55;99492.72;1768364;79;21159;-74
2021/03/14 10:20:20;;;;;;;15.15;10.93;;;;;;;8.49;59.49;99496.53;1687432;83;21255;-72
2021/03/14 10:22:59;;;;;;;15.95;8.83;;;;;;;8.63;58.91;99489.44;1687722;85;21582;-73
2021/03/14 10:25:44;;;;;;;18.42;11.85;;;;;;;8.66;58.71;99485.40;1765622;76;28731;-67
2021/03/14 10:28:18;;;;;;;16.12;10.32;;;;;;;8.56;59.25;99482.28;1692327;82;21179;-69
2021/03/14 10:30:57;;;;;;;19.48;12.65;;;;;;;8.37;59.07;99470.28;1695260;83;21396;-68
2021/03/14 10:33:31;;;;;;;19.20;12.05;;;;;;;8.12;59.35;99469.92;1723998;82;21845;-68
2021/03/14 10:36:17;;;;;;;19.87;11.33;;;;;;;7.75;61.08;99466.46;1739825;81;21040;-67
2021/03/14 10:38:52;;;;;;;21.40;11.80;;;;;;;7.59;61.64;99470.08;1715297;82;21226;-67
2021/03/14 10:41:23;;;;;;;21.95;13.55;;;;;;;7.50;61.66;99471.71;1761301;79;21210;-72
2021/03/14 10:44:00;;;;;;;20.43;13.60;;;;;;;7.39;62.13;99471.27;1769179;80;21396;-72
2021/03/14 10:46:52;;;;;;;20.82;12.13;;;;;;;7.39;62.13;99471.27;1760656;80;21513;-73
2021/03/14 10:49:28;;;;;;;19.87;13.22;;;;;;;7.42;62.12;99473.77;1780675;80;22437;-72
2021/03/14 10:51:59;;;;;;;19.17;10.18;;;;;;;7.35;62.14;99472.66;1783003;80;21321;-72
2021/03/14 10:54:36;;;;;;;20.27;12.82;;;;;;;7.33;62.32;99465.30;1783597;78;21072;-68
2021/03/14 10:57:15;;;;;;;21.75;13.32;;;;;;;7.20;63.29;99469.27;1744588;80;21272;-67
2021/03/14 10:59:51;;;;;;;20.70;12.60;;;;;;;7.12;63.45;99459.49;1739021;82;21171;-66
2021/03/14 11:02:25;;;;;;;19.57;12.18;;;;;;;7.11;63.12;99467.80;1734388;82;21223;-64
2021/03/14 11:04:58;;;;;;;22.58;14.18;;;;;;;7.02;63.68;99458.10;1733461;82;21630;-65
2021/03/14 11:07:30;;;;;;;23.20;13.25;;;;;;;7.05;63.75;99447.52;1743070;82;21150;-66
2021/03/14 11:10:11;;;;;;;22.37;11.75;;;;;;;7.03;63.83;99448.02;1721969;81;21230;-72
2021/03/14 11:12:43;;;;;;;15.18;8.63;;;;;;;6.93;64.32;99453.56;1652602;85;21247;-71
2021/03/14 11:15:26;;;;;;;17.75;10.53;;;;;;;6.67;64.50;99450.91;1660359;85;21635;-72
2021/03/14 11:18:03;;;;;;;22.48;13.10;;;;;;;6.41;65.04;99463.05;1673182;83;21200;-73
2021/03/14 11:21:04;;;;;;;24.43;14.63;;;;;;;6.34;66.46;99453.69;1962486;71;27443;-71
2021/03/14 11:23:32;;;;;;;26.50;15.23;;;;;;;6.21;66.15;99439.27;1917731;73;21626;-72
2021/03/14 11:26:01;;;;;;;27.37;14.05;;;;;;;6.17;66.83;99440.28;1863373;74;21395;-66
2021/03/14 11:28:29;;;;;;;19.37;11.48;;;;;;;6.20;66.67;99450.64;1836768;78;21014;-66
2021/03/14 11:30:59;;;;;;;31.50;17.92;;;;;;;6.24;67.39;99441.81;1831956;77;21449;-66
2021/03/14 11:33:27;;;;;;;33.13;18.55;;;;;;;6.21;67.82;99440.57;1831429;77;21175;-66
2021/03/14 11:35:57;;;;;;;47.78;19.75;;;;;;;6.13;68.41;99442.13;1839507;77;21141;-66
2021/03/14 11:38:34;;;;;;;35.10;19.05;;;;;;;5.92;69.68;99438.35;1825789;77;26682;-68
2021/03/14 11:41:07;;;;;;;35.00;20.17;;;;;;;5.77;70.03;99432.25;1764859;77;21397;-70
2021/03/14 11:43:55;;;;;;;37.70;19.85;;;;;;;5.79;70.17;99439.59;1739141;81;21580;-70
2021/03/14 11:46:24;;;;;;;34.95;20.40;;;;;;;5.68;70.86;99434.23;1760156;81;21582;-70
2021/03/14 11:48:56;;;;;;;28.95;13.48;;;;;;;5.59;71.38;99425.36;1759373;81;21217;-71